createdAt,value
2016-12-27T00:00:28.647Z,1023.92
2016-12-27T00:01:34.814Z,1024.03
2016-12-27T00:02:39.462Z,1023.98
2016-12-27T00:03:44.642Z,1024.03
2016-12-27T00:04:50.006Z,1024.01
2016-12-27T00:05:55.332Z,1024.05
2016-12-27T00:07:00.497Z,1024.24
2016-12-27T00:08:04.724Z,1024.16
2016-12-27T00:09:10.892Z,1024.09
2016-12-27T00:10:17.056Z,1024.13
2016-12-27T00:11:23.228Z,1024.16
2016-12-27T00:12:28.421Z,1024.13
2016-12-27T00:13:33.612Z,1024.11
2016-12-27T00:14:38.833Z,1024.13
2016-12-27T00:15:42.070Z,1024.22
2016-12-27T00:16:46.262Z,1024.12
2016-12-27T00:17:51.465Z,1024.16
2016-12-27T00:18:55.699Z,1024.12
2016-12-27T00:20:00.896Z,1024.1
2016-12-27T00:21:06.108Z,1024.1
2016-12-27T00:22:08.412Z,1024.09
2016-12-27T00:23:12.644Z,1024.12
2016-12-27T00:24:18.807Z,1024.15
2016-12-27T00:25:25.019Z,1024.13
2016-12-27T00:26:31.184Z,1024.06
2016-12-27T00:27:37.362Z,1024.18
2016-12-27T00:28:43.537Z,1024.16
2016-12-27T00:29:49.723Z,1024.16
2016-12-27T00:30:55.875Z,1024.3
2016-12-27T00:32:02.039Z,1024.4
2016-12-27T00:33:07.236Z,1024.34
2016-12-27T00:34:13.465Z,1024.3
2016-12-27T00:35:17.673Z,1024.25
2016-12-27T00:36:22.841Z,1024.32
2016-12-27T00:37:29.010Z,1024.38
2016-12-27T00:38:35.178Z,1024.42
2016-12-27T00:39:40.429Z,1024.4
2016-12-27T00:40:45.601Z,1024.36
2016-12-27T00:41:50.794Z,1024.38
2016-12-27T00:42:55.985Z,1024.24
2016-12-27T00:44:01.193Z,1024.42
2016-12-27T00:45:06.402Z,1024.4
2016-12-27T00:46:10.606Z,1024.23
2016-12-27T00:47:15.825Z,1024.37
2016-12-27T00:48:21.031Z,1024.44
2016-12-27T00:49:26.226Z,1024.4
2016-12-27T00:50:31.431Z,1024.4
2016-12-27T00:51:37.603Z,1024.43
2016-12-27T00:52:42.855Z,1024.44
2016-12-27T00:53:47.099Z,1024.5
2016-12-27T00:54:51.402Z,1024.46
2016-12-27T00:55:55.653Z,1024.43
2016-12-27T00:57:01.117Z,1024.6
2016-12-27T00:58:07.286Z,1024.63
2016-12-27T00:59:13.455Z,1024.57
2016-12-27T01:00:17.711Z,1024.61
2016-12-27T01:01:23.871Z,1024.64
2016-12-27T01:02:28.782Z,1024.61
2016-12-27T01:03:33.990Z,1024.62
2016-12-27T01:04:39.154Z,1024.66
2016-12-27T01:05:44.345Z,1024.68
2016-12-27T01:06:50.508Z,1024.67
2016-12-27T01:07:56.672Z,1024.67
2016-12-27T01:09:02.876Z,1024.71
2016-12-27T01:10:09.053Z,1024.75
2016-12-27T01:11:15.220Z,1024.76
2016-12-27T01:12:21.423Z,1024.78
2016-12-27T01:13:26.589Z,1024.79
2016-12-27T01:14:29.927Z,1024.74
2016-12-27T01:15:35.110Z,1024.82
2016-12-27T01:16:40.339Z,1024.76
2016-12-27T01:17:45.011Z,1024.88
2016-12-27T01:18:50.210Z,1024.81
2016-12-27T01:19:56.485Z,1024.85
2016-12-27T01:21:02.649Z,1024.86
2016-12-27T01:22:07.853Z,1024.89
2016-12-27T01:23:13.240Z,1024.92
2016-12-27T01:24:16.482Z,1024.94
2016-12-27T01:25:20.690Z,1024.95
2016-12-27T01:26:26.860Z,1024.95
2016-12-27T01:27:32.032Z,1025.09
2016-12-27T01:28:38.207Z,1025.02
2016-12-27T01:29:42.468Z,1024.94
2016-12-27T01:30:46.718Z,1024.99
2016-12-27T01:31:51.949Z,1024.97
2016-12-27T01:32:58.111Z,1024.96
2016-12-27T01:34:03.289Z,1025.01
2016-12-27T01:35:08.488Z,1024.98
2016-12-27T01:36:12.715Z,1025.11
2016-12-27T01:37:17.981Z,1025.18
2016-12-27T01:38:21.234Z,1025.15
2016-12-27T01:39:26.424Z,1025.16
2016-12-27T01:40:31.623Z,1025.07
2016-12-27T01:41:37.796Z,1025.14
2016-12-27T01:42:43.959Z,1025.21
2016-12-27T01:43:48.248Z,1025.17
2016-12-27T01:44:53.449Z,1025.24
2016-12-27T01:45:59.638Z,1025.22
2016-12-27T01:47:03.829Z,1025.27
2016-12-27T01:48:09.997Z,1025.31
2016-12-27T01:49:16.163Z,1025.29
2016-12-27T01:50:22.330Z,1025.38
2016-12-27T01:51:28.501Z,1025.44
2016-12-27T01:52:34.671Z,1025.46
2016-12-27T01:53:38.872Z,1025.5
2016-12-27T01:54:44.077Z,1025.48
2016-12-27T01:55:49.280Z,1025.44
2016-12-27T01:56:53.519Z,1025.5
2016-12-27T01:57:58.715Z,1025.52
2016-12-27T01:59:03.918Z,1025.51
2016-12-27T02:00:09.117Z,1025.57
2016-12-27T02:01:15.287Z,1025.56
2016-12-27T02:02:19.494Z,1025.58
2016-12-27T02:03:24.672Z,1025.54
2016-12-27T02:04:29.835Z,1025.51
2016-12-27T02:05:35.024Z,1025.56
2016-12-27T02:06:41.192Z,1025.54
2016-12-27T02:07:47.358Z,1025.41
2016-12-27T02:08:52.551Z,1025.31
2016-12-27T02:09:58.719Z,1025.34
2016-12-27T02:11:03.915Z,1025.34
2016-12-27T02:12:10.084Z,1025.31
2016-12-27T02:13:15.285Z,1025.29
2016-12-27T02:14:21.559Z,1025.28
2016-12-27T02:15:23.943Z,1025.38
2016-12-27T02:16:28.146Z,1025.4
2016-12-27T02:17:34.315Z,1025.41
2016-12-27T02:18:38.549Z,1025.35
2016-12-27T02:19:43.749Z,1025.39
2016-12-27T02:20:48.941Z,1025.37
2016-12-27T02:21:54.156Z,1025.37
2016-12-27T02:23:00.321Z,1025.38
2016-12-27T02:24:04.561Z,1025.4
2016-12-27T02:25:08.762Z,1025.46
2016-12-27T02:26:15.025Z,1025.45
2016-12-27T02:27:21.190Z,1025.43
2016-12-27T02:28:27.415Z,1025.47
2016-12-27T02:29:33.583Z,1025.53
2016-12-27T02:30:38.745Z,1025.57
2016-12-27T02:31:43.913Z,1025.54
2016-12-27T02:32:49.108Z,1025.55
2016-12-27T02:33:54.315Z,1025.57
2016-12-27T02:35:00.479Z,1025.56
2016-12-27T02:36:06.650Z,1025.54
2016-12-27T02:37:12.814Z,1025.58
2016-12-27T02:38:18.014Z,1025.65
2016-12-27T02:39:23.238Z,1025.68
2016-12-27T02:40:29.418Z,1025.65
2016-12-27T02:41:34.631Z,1025.58
2016-12-27T02:42:40.791Z,1025.59
2016-12-27T02:43:44.059Z,1025.56
2016-12-27T02:44:49.236Z,1025.57
2016-12-27T02:45:55.403Z,1025.61
2016-12-27T02:47:00.655Z,1025.61
2016-12-27T02:48:05.851Z,1025.54
2016-12-27T02:49:09.096Z,1025.54
2016-12-27T02:50:14.292Z,1025.57
2016-12-27T02:51:19.459Z,1025.58
2016-12-27T02:52:24.668Z,1025.6
2016-12-27T02:53:30.839Z,1025.67
2016-12-27T02:54:37.004Z,1025.64
2016-12-27T02:55:43.165Z,1025.65
2016-12-27T02:56:49.334Z,1025.64
2016-12-27T02:57:52.573Z,1025.6
2016-12-27T02:58:57.771Z,1025.53
2016-12-27T03:00:03.938Z,1025.57
2016-12-27T03:01:10.140Z,1025.48
2016-12-27T03:02:15.280Z,1025.57
2016-12-27T03:03:19.508Z,1025.58
2016-12-27T03:04:25.670Z,1025.56
2016-12-27T03:05:31.845Z,1025.62
2016-12-27T03:06:38.016Z,1025.63
2016-12-27T03:07:44.273Z,1025.65
2016-12-27T03:08:49.449Z,1025.8
2016-12-27T03:09:54.641Z,1025.74
2016-12-27T03:11:00.803Z,1025.75
2016-12-27T03:12:05.072Z,1025.76
2016-12-27T03:13:11.239Z,1025.8
2016-12-27T03:14:17.466Z,1025.86
2016-12-27T03:15:21.673Z,1025.83
2016-12-27T03:16:25.187Z,1025.82
2016-12-27T03:17:31.387Z,1025.9
2016-12-27T03:18:36.548Z,1025.87
2016-12-27T03:19:42.780Z,1025.81
2016-12-27T03:20:48.942Z,1025.81
2016-12-27T03:21:53.163Z,1025.93
2016-12-27T03:22:59.351Z,1025.88
2016-12-27T03:24:04.544Z,1025.83
2016-12-27T03:25:08.828Z,1025.88
2016-12-27T03:26:13.120Z,1025.83
2016-12-27T03:27:17.344Z,1025.83
2016-12-27T03:28:21.707Z,1025.85
2016-12-27T03:29:27.848Z,1025.81
2016-12-27T03:30:33.041Z,1025.81
2016-12-27T03:31:37.270Z,1025.79
2016-12-27T03:32:42.469Z,1025.94
2016-12-27T03:33:48.651Z,1026.03
2016-12-27T03:34:54.819Z,1026
2016-12-27T03:36:00.982Z,1026.07
2016-12-27T03:37:07.148Z,1026.04
2016-12-27T03:38:11.350Z,1026.08
2016-12-27T03:39:17.513Z,1026.03
2016-12-27T03:40:22.708Z,1026.06
2016-12-27T03:41:28.882Z,1026.09
2016-12-27T03:42:34.087Z,1026.13
2016-12-27T03:43:38.325Z,1026.23
2016-12-27T03:44:44.488Z,1026.27
2016-12-27T03:45:50.675Z,1026.34
2016-12-27T03:46:55.877Z,1026.33
2016-12-27T03:48:00.121Z,1026.32
2016-12-27T03:49:05.323Z,1026.34
2016-12-27T03:50:11.496Z,1026.41
2016-12-27T03:51:16.688Z,1026.36
2016-12-27T03:52:20.933Z,1026.28
2016-12-27T03:53:27.114Z,1026.35
2016-12-27T03:54:31.335Z,1026.39
2016-12-27T03:55:36.525Z,1026.32
2016-12-27T03:56:41.723Z,1026.35
2016-12-27T03:57:46.921Z,1026.34
2016-12-27T03:58:52.109Z,1026.38
2016-12-27T03:59:57.278Z,1026.41
2016-12-27T04:01:02.490Z,1026.43
2016-12-27T04:02:08.658Z,1026.42
2016-12-27T04:03:12.889Z,1026.44
2016-12-27T04:04:17.126Z,1026.42
2016-12-27T04:05:22.321Z,1026.42
2016-12-27T04:06:27.543Z,1026.43
2016-12-27T04:07:32.743Z,1026.44
2016-12-27T04:08:36.967Z,1026.45
2016-12-27T04:09:42.170Z,1026.41
2016-12-27T04:10:48.337Z,1026.49
2016-12-27T04:11:53.530Z,1026.51
2016-12-27T04:12:57.887Z,1026.54
2016-12-27T04:14:04.043Z,1026.54
2016-12-27T04:15:08.280Z,1026.58
2016-12-27T04:16:14.443Z,1026.61
2016-12-27T04:17:20.605Z,1026.57
2016-12-27T04:18:26.856Z,1026.58
2016-12-27T04:19:32.064Z,1026.56
2016-12-27T04:20:38.231Z,1026.55
2016-12-27T04:21:44.394Z,1026.58
2016-12-27T04:22:49.572Z,1026.57
2016-12-27T04:23:54.733Z,1026.62
2016-12-27T04:25:00.897Z,1026.6
2016-12-27T04:26:07.132Z,1026.58
2016-12-27T04:27:11.358Z,1026.59
2016-12-27T04:28:16.569Z,1026.58
2016-12-27T04:29:20.769Z,1026.59
2016-12-27T04:30:26.937Z,1026.58
2016-12-27T04:31:32.139Z,1026.71
2016-12-27T04:32:38.305Z,1026.77
2016-12-27T04:33:43.536Z,1026.79
2016-12-27T04:34:48.670Z,1026.76
2016-12-27T04:35:54.848Z,1026.78
2016-12-27T04:37:01.020Z,1026.76
2016-12-27T04:38:07.188Z,1026.82
2016-12-27T04:39:10.423Z,1026.83
2016-12-27T04:40:14.629Z,1026.84
2016-12-27T04:41:20.797Z,1026.86
2016-12-27T04:42:26.030Z,1026.9
2016-12-27T04:43:31.228Z,1026.89
2016-12-27T04:44:36.450Z,1026.94
2016-12-27T04:45:40.657Z,1027.02
2016-12-27T04:46:46.827Z,1026.96
2016-12-27T04:47:52.990Z,1026.99
2016-12-27T04:48:56.566Z,1026.97
2016-12-27T04:50:02.727Z,1027.04
2016-12-27T04:51:08.931Z,1027.09
2016-12-27T04:52:14.145Z,1027.12
2016-12-27T04:53:19.473Z,1027.12
2016-12-27T04:54:24.794Z,1027.1
2016-12-27T04:55:30.946Z,1027.11
2016-12-27T04:56:36.187Z,1027.08
2016-12-27T04:57:41.347Z,1027.09
2016-12-27T04:58:47.509Z,1027.1
2016-12-27T04:59:52.709Z,1027.13
2016-12-27T05:00:56.988Z,1027.18
2016-12-27T05:02:03.158Z,1027.19
2016-12-27T05:03:08.404Z,1027.13
2016-12-27T05:04:14.527Z,1027.17
2016-12-27T05:05:20.694Z,1027.13
2016-12-27T05:06:25.980Z,1027.1
2016-12-27T05:07:31.187Z,1027.13
2016-12-27T05:08:36.381Z,1027.09
2016-12-27T05:09:41.632Z,1027.11
2016-12-27T05:10:46.834Z,1027.12
2016-12-27T05:11:52.992Z,1027.16
2016-12-27T05:12:59.169Z,1027.11
2016-12-27T05:14:03.371Z,1027.13
2016-12-27T05:15:09.550Z,1027.17
2016-12-27T05:16:13.784Z,1027.18
2016-12-27T05:17:19.949Z,1027.18
2016-12-27T05:18:26.120Z,1027.17
2016-12-27T05:19:32.336Z,1027.2
2016-12-27T05:20:35.572Z,1027.22
2016-12-27T05:21:40.781Z,1027.23
2016-12-27T05:22:45.979Z,1027.24
2016-12-27T05:23:51.171Z,1027.28
2016-12-27T05:24:57.337Z,1027.25
2016-12-27T05:26:03.497Z,1027.21
2016-12-27T05:27:09.667Z,1027.25
2016-12-27T05:28:12.930Z,1027.26
2016-12-27T05:29:19.100Z,1027.35
2016-12-27T05:30:23.324Z,1027.36
2016-12-27T05:31:27.572Z,1027.38
2016-12-27T05:32:32.776Z,1027.38
2016-12-27T05:33:37.972Z,1027.39
2016-12-27T05:34:43.170Z,1027.45
2016-12-27T05:36:53.557Z,1027.41
2016-12-27T05:37:59.727Z,1027.46
2016-12-27T05:39:04.891Z,1027.48
2016-12-27T05:40:10.101Z,1027.48
2016-12-27T05:41:15.311Z,1027.53
2016-12-27T05:42:21.592Z,1027.51
2016-12-27T05:43:25.801Z,1027.55
2016-12-27T05:44:30.969Z,1027.44
2016-12-27T05:45:36.248Z,1027.47
2016-12-27T05:46:41.450Z,1027.51
2016-12-27T05:47:45.677Z,1027.48
2016-12-27T05:48:50.869Z,1027.49
2016-12-27T05:49:57.027Z,1027.57
2016-12-27T05:51:02.229Z,1027.56
2016-12-27T05:52:07.425Z,1027.61
2016-12-27T05:53:11.696Z,1027.58
2016-12-27T05:54:16.864Z,1027.66
2016-12-27T05:55:21.094Z,1027.67
2016-12-27T05:56:25.305Z,1027.69
2016-12-27T05:57:31.469Z,1027.7
2016-12-27T05:58:36.678Z,1027.76
2016-12-27T05:59:39.935Z,1027.73
2016-12-27T06:00:46.108Z,1027.73
2016-12-27T06:01:52.286Z,1027.69
2016-12-27T06:02:56.479Z,1027.75
2016-12-27T06:04:01.743Z,1027.78
2016-12-27T06:05:06.957Z,1027.79
2016-12-27T06:06:12.154Z,1027.86
2016-12-27T06:07:17.354Z,1027.88
2016-12-27T06:08:22.549Z,1027.88
2016-12-27T06:09:26.779Z,1027.94
2016-12-27T06:10:33.000Z,1027.97
2016-12-27T06:11:38.197Z,1028.03
2016-12-27T06:12:42.422Z,1028.01
2016-12-27T06:13:48.579Z,1028.05
2016-12-27T06:14:54.746Z,1028.05
2016-12-27T06:15:58.015Z,1028.09
2016-12-27T06:17:04.183Z,1028.08
2016-12-27T06:18:09.378Z,1028.06
2016-12-27T06:19:14.630Z,1028.02
2016-12-27T06:20:20.793Z,1028.01
2016-12-27T06:21:26.037Z,1028.08
2016-12-27T06:22:32.154Z,1028.07
2016-12-27T06:23:35.484Z,1028.15
2016-12-27T06:24:40.705Z,1028.24
2016-12-27T06:25:43.955Z,1028.28
2016-12-27T06:26:49.151Z,1028.27
2016-12-27T06:27:55.315Z,1028.25
2016-12-27T06:29:00.510Z,1028.3
2016-12-27T06:30:06.676Z,1028.3
2016-12-27T06:31:11.655Z,1028.29
2016-12-27T06:32:17.866Z,1028.31
2016-12-27T06:33:23.029Z,1028.36
2016-12-27T06:34:28.224Z,1028.38
2016-12-27T06:35:32.427Z,1028.4
2016-12-27T06:36:38.591Z,1028.5
2016-12-27T06:37:43.782Z,1028.46
2016-12-27T06:38:46.188Z,1028.52
2016-12-27T06:39:51.361Z,1028.54
2016-12-27T06:40:56.557Z,1028.51
2016-12-27T06:42:01.834Z,1028.49
2016-12-27T06:43:07.008Z,1028.5
2016-12-27T06:44:12.199Z,1028.5
2016-12-27T06:45:17.407Z,1028.53
2016-12-27T06:46:21.622Z,1028.49
2016-12-27T06:47:27.770Z,1028.51
2016-12-27T06:48:32.973Z,1028.47
2016-12-27T06:49:38.171Z,1028.45
2016-12-27T06:50:44.342Z,1028.49
2016-12-27T06:51:49.562Z,1028.45
2016-12-27T06:52:55.728Z,1028.46
2016-12-27T06:54:01.891Z,1028.47
2016-12-27T06:55:07.200Z,1028.44
2016-12-27T06:56:12.393Z,1028.52
2016-12-27T06:57:16.622Z,1028.5
2016-12-27T06:58:20.853Z,1028.5
2016-12-27T06:59:26.146Z,1028.57
2016-12-27T07:00:31.250Z,1028.59
2016-12-27T07:01:36.440Z,1028.63
2016-12-27T07:02:41.638Z,1028.59
2016-12-27T07:03:46.823Z,1028.61
2016-12-27T07:04:52.082Z,1028.65
2016-12-27T07:05:55.316Z,1028.62
2016-12-27T07:07:01.480Z,1028.59
2016-12-27T07:08:06.774Z,1028.55
2016-12-27T07:09:10.436Z,1028.55
2016-12-27T07:10:15.602Z,1028.62
2016-12-27T07:11:20.841Z,1028.59
2016-12-27T07:12:26.048Z,1028.56
2016-12-27T07:13:30.448Z,1028.6
2016-12-27T07:14:35.618Z,1028.57
2016-12-27T07:15:41.838Z,1028.6
2016-12-27T07:16:45.029Z,1028.58
2016-12-27T07:17:51.192Z,1028.6
2016-12-27T07:18:57.360Z,1028.64
2016-12-27T07:20:01.605Z,1028.59
2016-12-27T07:21:07.770Z,1028.62
2016-12-27T07:22:14.008Z,1028.64
2016-12-27T07:23:19.202Z,1028.64
2016-12-27T07:24:23.431Z,1028.65
2016-12-27T07:25:28.661Z,1028.66
2016-12-27T07:26:32.894Z,1028.68
2016-12-27T07:27:38.087Z,1028.67
2016-12-27T07:28:43.265Z,1028.73
2016-12-27T07:29:48.427Z,1028.76
2016-12-27T07:30:53.626Z,1028.71
2016-12-27T07:31:59.803Z,1028.74
2016-12-27T07:33:04.089Z,1028.75
2016-12-27T07:34:09.290Z,1028.83
2016-12-27T07:35:14.504Z,1028.89
2016-12-27T07:36:19.681Z,1028.9
2016-12-27T07:37:22.920Z,1028.87
2016-12-27T07:38:28.805Z,1028.95
2016-12-27T07:39:34.968Z,1029
2016-12-27T07:40:38.228Z,1028.97
2016-12-27T07:41:43.469Z,1028.93
2016-12-27T07:42:48.611Z,1028.93
2016-12-27T07:43:52.866Z,1028.97
2016-12-27T07:44:58.062Z,1029
2016-12-27T07:46:04.284Z,1028.98
2016-12-27T07:47:10.453Z,1028.96
2016-12-27T07:48:15.643Z,1029.05
2016-12-27T07:49:20.848Z,1029.08
2016-12-27T07:50:24.116Z,1029.14
2016-12-27T07:51:26.381Z,1029.15
2016-12-27T07:52:32.546Z,1029.17
2016-12-27T07:53:37.744Z,1029.18
2016-12-27T07:54:41.937Z,1029.15
2016-12-27T07:55:48.207Z,1029.18
2016-12-27T07:56:54.373Z,1029.26
2016-12-27T07:58:00.537Z,1029.29
2016-12-27T07:59:06.734Z,1029.37
2016-12-27T08:00:11.898Z,1029.44
2016-12-27T08:01:16.124Z,1029.44
2016-12-27T08:02:21.326Z,1029.45
2016-12-27T08:03:27.501Z,1029.46
2016-12-27T08:04:33.670Z,1029.47
2016-12-27T08:05:38.876Z,1029.47
2016-12-27T08:06:44.065Z,1029.52
2016-12-27T08:07:48.302Z,1029.5
2016-12-27T08:08:54.482Z,1029.53
2016-12-27T08:09:58.784Z,1029.57
2016-12-27T08:11:04.961Z,1029.62
2016-12-27T08:12:11.129Z,1029.61
2016-12-27T08:13:16.327Z,1029.64
2016-12-27T08:14:22.481Z,1029.64
2016-12-27T08:15:26.709Z,1029.68
2016-12-27T08:16:32.875Z,1029.73
2016-12-27T08:17:37.104Z,1029.68
2016-12-27T08:18:41.373Z,1029.69
2016-12-27T08:19:46.540Z,1029.72
2016-12-27T08:20:51.766Z,1029.69
2016-12-27T08:21:57.902Z,1029.73
2016-12-27T08:23:03.170Z,1029.75
2016-12-27T08:24:07.430Z,1029.79
2016-12-27T08:25:13.596Z,1029.79
2016-12-27T08:26:18.761Z,1029.85
2016-12-27T08:27:24.937Z,1029.84
2016-12-27T08:28:31.211Z,1029.9
2016-12-27T08:29:37.372Z,1029.85
2016-12-27T08:30:42.577Z,1029.88
2016-12-27T08:31:47.777Z,1029.91
2016-12-27T08:32:52.947Z,1029.96
2016-12-27T08:33:59.109Z,1029.97
2016-12-27T08:35:04.328Z,1029.99
2016-12-27T08:36:10.494Z,1030.06
2016-12-27T08:37:15.691Z,1030.06
2016-12-27T08:38:20.889Z,1030.06
2016-12-27T08:39:26.086Z,1030.08
2016-12-27T08:40:32.250Z,1030.16
2016-12-27T08:41:38.420Z,1030.19
2016-12-27T08:42:43.691Z,1030.19
2016-12-27T08:43:48.931Z,1030.19
2016-12-27T08:44:55.102Z,1030.21
2016-12-27T08:46:00.267Z,1030.23
2016-12-27T08:47:05.436Z,1030.23
2016-12-27T08:48:11.598Z,1030.22
2016-12-27T08:49:17.828Z,1030.21
2016-12-27T08:50:23.133Z,1030.21
2016-12-27T08:51:28.331Z,1030.26
2016-12-27T08:52:33.522Z,1030.2
2016-12-27T08:53:38.729Z,1030.18
2016-12-27T08:54:44.948Z,1030.22
2016-12-27T08:55:50.179Z,1030.25
2016-12-27T08:56:56.349Z,1030.31
2016-12-27T08:58:00.442Z,1030.26
2016-12-27T08:59:06.608Z,1030.36
2016-12-27T09:00:12.776Z,1030.38
2016-12-27T09:01:17.999Z,1030.34
2016-12-27T09:02:24.167Z,1030.33
2016-12-27T09:03:29.376Z,1030.33
2016-12-27T09:04:34.577Z,1030.36
2016-12-27T09:05:38.790Z,1030.38
2016-12-27T09:06:43.972Z,1030.32
2016-12-27T09:07:49.141Z,1030.35
2016-12-27T09:08:55.355Z,1030.33
2016-12-27T09:09:59.582Z,1030.38
2016-12-27T09:11:05.786Z,1030.34
2016-12-27T09:12:10.987Z,1030.35
2016-12-27T09:13:13.260Z,1030.37
2016-12-27T09:14:17.505Z,1030.38
2016-12-27T09:15:22.643Z,1030.42
2016-12-27T09:16:27.841Z,1030.47
2016-12-27T09:17:32.036Z,1030.48
2016-12-27T09:18:37.230Z,1030.45
2016-12-27T09:19:43.410Z,1030.48
2016-12-27T09:20:46.696Z,1030.6
2016-12-27T09:21:51.068Z,1030.65
2016-12-27T09:22:57.302Z,1030.67
2016-12-27T09:24:01.517Z,1030.64
2016-12-27T09:25:06.716Z,1030.68
2016-12-27T09:26:11.877Z,1030.69
2016-12-27T09:27:18.046Z,1030.75
2016-12-27T09:28:24.224Z,1030.76
2016-12-27T09:29:30.442Z,1030.82
2016-12-27T09:30:35.602Z,1030.81
2016-12-27T09:31:40.774Z,1030.79
2016-12-27T09:32:45.974Z,1030.79
2016-12-27T09:33:51.175Z,1030.79
2016-12-27T09:34:56.353Z,1030.77
2016-12-27T09:36:01.566Z,1030.78
2016-12-27T09:37:07.865Z,1030.78
2016-12-27T09:38:14.156Z,1030.8
2016-12-27T09:39:18.987Z,1030.84
2016-12-27T09:40:24.198Z,1030.79
2016-12-27T09:41:28.422Z,1030.89
2016-12-27T09:42:33.657Z,1030.86
2016-12-27T09:43:37.887Z,1030.89
2016-12-27T09:44:44.087Z,1030.87
2016-12-27T09:45:48.253Z,1030.84
2016-12-27T09:46:53.472Z,1030.83
2016-12-27T09:47:58.666Z,1030.83
2016-12-27T09:49:04.831Z,1030.86
2016-12-27T09:50:11.011Z,1030.89
2016-12-27T09:51:17.182Z,1030.87
2016-12-27T09:52:21.419Z,1030.78
2016-12-27T09:53:26.622Z,1030.74
2016-12-27T09:54:31.824Z,1030.84
2016-12-27T09:55:37.027Z,1030.8
2016-12-27T09:56:43.189Z,1030.85
2016-12-27T09:57:48.399Z,1030.82
2016-12-27T09:58:54.570Z,1030.89
2016-12-27T09:59:59.831Z,1030.86
2016-12-27T10:01:06.003Z,1030.86
2016-12-27T10:02:11.202Z,1030.92
2016-12-27T10:03:16.411Z,1030.93
2016-12-27T10:04:20.645Z,1030.94
2016-12-27T10:05:24.855Z,1030.91
2016-12-27T10:06:30.061Z,1030.9
2016-12-27T10:07:34.273Z,1030.84
2016-12-27T10:08:39.446Z,1030.81
2016-12-27T10:09:44.650Z,1030.74
2016-12-27T10:10:48.897Z,1030.72
2016-12-27T10:11:55.063Z,1030.73
2016-12-27T10:13:00.273Z,1030.77
2016-12-27T10:14:06.437Z,1030.8
2016-12-27T10:15:11.618Z,1030.77
2016-12-27T10:16:16.852Z,1030.73
2016-12-27T10:17:23.119Z,1030.71
2016-12-27T10:18:28.436Z,1030.66
2016-12-27T10:19:32.638Z,1030.77
2016-12-27T10:20:36.908Z,1030.85
2016-12-27T10:21:43.073Z,1030.85
2016-12-27T10:22:48.287Z,1030.84
2016-12-27T10:23:54.454Z,1030.8
2016-12-27T10:25:00.657Z,1030.75
2016-12-27T10:26:05.834Z,1030.78
2016-12-27T10:27:12.019Z,1030.78
2016-12-27T10:28:17.234Z,1030.85
2016-12-27T10:29:22.435Z,1030.81
2016-12-27T10:30:27.612Z,1030.76
2016-12-27T10:31:30.972Z,1030.87
2016-12-27T10:32:37.154Z,1030.9
2016-12-27T10:33:40.546Z,1030.95
2016-12-27T10:34:45.820Z,1030.96
2016-12-27T10:35:52.164Z,1030.97
2016-12-27T10:36:58.344Z,1030.97
2016-12-27T10:38:03.557Z,1030.92
2016-12-27T10:39:09.730Z,1030.92
2016-12-27T10:40:14.939Z,1030.94
2016-12-27T10:41:21.108Z,1030.84
2016-12-27T10:42:27.313Z,1030.84
2016-12-27T10:43:32.520Z,1030.83
2016-12-27T10:44:37.767Z,1030.89
2016-12-27T10:45:41.935Z,1030.93
2016-12-27T10:46:48.109Z,1030.89
2016-12-27T10:47:53.322Z,1030.96
2016-12-27T10:48:59.544Z,1030.93
2016-12-27T10:50:05.710Z,1030.97
2016-12-27T10:51:10.920Z,1030.98
2016-12-27T10:52:17.083Z,1030.96
2016-12-27T10:53:23.357Z,1030.87
2016-12-27T10:54:26.601Z,1030.88
2016-12-27T10:55:30.850Z,1030.9
2016-12-27T10:56:35.233Z,1031.01
2016-12-27T10:57:41.405Z,1030.99
2016-12-27T10:58:45.640Z,1031
2016-12-27T10:59:50.847Z,1030.91
2016-12-27T11:00:56.079Z,1031
2016-12-27T11:02:00.256Z,1030.97
2016-12-27T11:03:06.439Z,1030.94
2016-12-27T11:04:11.645Z,1030.94
2016-12-27T11:05:15.928Z,1030.98
2016-12-27T11:06:22.102Z,1031.04
2016-12-27T11:07:28.276Z,1031.14
2016-12-27T11:08:34.499Z,1031.18
2016-12-27T11:09:40.670Z,1031.09
2016-12-27T11:10:46.849Z,1031.05
2016-12-27T11:11:52.125Z,1030.91
2016-12-27T11:12:56.346Z,1031.02
2016-12-27T11:14:00.590Z,1030.98
2016-12-27T11:15:06.850Z,1031
2016-12-27T11:16:12.386Z,1031.05
2016-12-27T11:17:17.631Z,1031
2016-12-27T11:18:23.759Z,1031.11
2016-12-27T11:19:29.943Z,1031.11
2016-12-27T11:20:36.113Z,1031.11
2016-12-27T11:21:41.323Z,1031.13
2016-12-27T11:22:46.516Z,1031.02
2016-12-27T11:23:50.726Z,1031.05
2016-12-27T11:24:54.963Z,1031.05
2016-12-27T11:25:58.214Z,1031.1
2016-12-27T11:27:04.390Z,1031.04
2016-12-27T11:28:09.604Z,1031.03
2016-12-27T11:29:15.782Z,1031.01
2016-12-27T11:30:21.960Z,1031.07
2016-12-27T11:31:27.257Z,1031.06
2016-12-27T11:32:32.514Z,1031.05
2016-12-27T11:33:38.636Z,1031.14
2016-12-27T11:34:44.829Z,1031.13
2016-12-27T11:35:50.038Z,1031.22
2016-12-27T11:36:56.208Z,1031.25
2016-12-27T11:37:59.525Z,1031.31
2016-12-27T11:39:04.733Z,1031.33
2016-12-27T11:40:10.905Z,1031.34
2016-12-27T11:41:16.082Z,1031.42
2016-12-27T11:42:22.371Z,1031.35
2016-12-27T11:43:27.221Z,1031.45
2016-12-27T11:44:32.391Z,1031.51
2016-12-27T11:45:37.588Z,1031.54
2016-12-27T11:46:42.795Z,1031.6
2016-12-27T11:47:48.967Z,1031.6
2016-12-27T11:48:52.211Z,1031.58
2016-12-27T11:49:58.382Z,1031.59
2016-12-27T11:51:03.685Z,1031.59
2016-12-27T11:52:09.861Z,1031.61
2016-12-27T11:53:16.052Z,1031.44
2016-12-27T11:54:20.246Z,1031.47
2016-12-27T11:55:24.467Z,1031.37
2016-12-27T11:56:29.462Z,1031.38
2016-12-27T11:57:34.719Z,1031.39
2016-12-27T11:58:39.997Z,1031.45
2016-12-27T11:59:45.211Z,1031.44
2016-12-27T12:00:51.425Z,1031.51
2016-12-27T12:01:57.700Z,1031.6
2016-12-27T12:03:02.003Z,1031.54
2016-12-27T12:04:07.201Z,1031.59
2016-12-27T12:05:12.400Z,1031.57
2016-12-27T12:06:18.657Z,1031.56
2016-12-27T12:07:23.978Z,1031.59
2016-12-27T12:08:29.179Z,1031.56
2016-12-27T12:09:33.394Z,1031.63
2016-12-27T12:10:37.694Z,1031.67
2016-12-27T12:11:42.901Z,1031.7
2016-12-27T12:12:49.153Z,1031.51
2016-12-27T12:13:55.395Z,1031.67
2016-12-27T12:14:58.665Z,1031.67
2016-12-27T12:16:03.910Z,1031.66
2016-12-27T12:17:10.080Z,1031.64
2016-12-27T12:18:14.311Z,1031.67
2016-12-27T12:19:20.580Z,1031.66
2016-12-27T12:20:25.784Z,1031.72
2016-12-27T12:21:31.070Z,1031.69
2016-12-27T12:22:36.283Z,1031.72
2016-12-27T12:23:41.493Z,1031.69
2016-12-27T12:24:47.657Z,1031.74
2016-12-27T12:25:52.857Z,1031.64
2016-12-27T12:26:57.064Z,1031.6
2016-12-27T12:28:02.361Z,1031.65
2016-12-27T12:29:07.699Z,1031.72
2016-12-27T12:30:12.847Z,1031.73
2016-12-27T12:31:19.017Z,1031.76
2016-12-27T12:32:24.218Z,1031.74
2016-12-27T12:33:30.399Z,1031.84
2016-12-27T12:34:35.603Z,1031.79
2016-12-27T12:35:40.812Z,1031.78
2016-12-27T12:36:45.983Z,1031.79
2016-12-27T12:37:51.195Z,1031.78
2016-12-27T12:38:57.366Z,1031.75
2016-12-27T12:40:02.575Z,1031.77
2016-12-27T12:41:08.757Z,1031.82
2016-12-27T12:42:14.937Z,1031.84
2016-12-27T12:43:20.156Z,1031.81
2016-12-27T12:45:29.568Z,1031.81
2016-12-27T12:46:34.768Z,1031.73
2016-12-27T12:47:39.980Z,1031.74
2016-12-27T12:48:45.243Z,1031.75
2016-12-27T12:49:50.447Z,1031.72
2016-12-27T12:50:54.718Z,1031.68
2016-12-27T12:52:00.883Z,1031.8
2016-12-27T12:53:06.065Z,1031.79
2016-12-27T12:54:12.278Z,1031.92
2016-12-27T12:55:17.484Z,1031.89
2016-12-27T12:56:21.714Z,1031.97
2016-12-27T12:57:27.945Z,1031.94
2016-12-27T12:58:32.260Z,1031.86
2016-12-27T12:59:38.344Z,1031.92
2016-12-27T13:00:43.562Z,1031.89
2016-12-27T13:01:49.729Z,1031.91
2016-12-27T13:02:55.913Z,1031.94
2016-12-27T13:04:01.086Z,1031.96
2016-12-27T13:06:11.461Z,1031.98
2016-12-27T13:07:16.681Z,1031.96
2016-12-27T13:08:22.841Z,1031.88
2016-12-27T13:09:28.052Z,1031.96
2016-12-27T13:10:32.311Z,1031.93
2016-12-27T13:11:36.494Z,1032.04
2016-12-27T13:12:41.707Z,1032.03
2016-12-27T13:13:46.923Z,1032.03
2016-12-27T13:14:52.129Z,1032.07
2016-12-27T13:15:57.396Z,1032.03